x

Sentry Shoal (46131) Wave Buoy

2:00 - Tue 28th Mar 2017 All times are PDT. -7 hours from GMT.

  • Sig Wave height 4.6ft
  • Peak Period 5s
  • Wind
    27mph, 31mph gusts
  • Sea Temp 46°f
  • Ar Temp 47°f
  • Sea Pressure 1017mb
  • Sentry Shoal
  • Sentry Shoal

More Historic Weather Station data

Upgrade to MSW Pro to gain access to the past 30 days of data for over 8000 Wavebouys and Weather Stations around the globe.

Join Pro

Comparision Forecast

View Surf forecast
   
Ter 03/28 2:00 4.5ft 5s 27 31 mph 1017mb 46f 47f
1:00 4.5ft 5s 22 27 mph 1017.2mb 46f 47f
12:00 4.5ft 5s 25 31 mph 1017mb 46f 48f
Seg 03/27 11:00 4ft 5s 29 36 mph 1016.8mb 46f 47f
10:00 3.5ft 4s 20 25 mph 1017.6mb 46f 47f
9:00 4ft 4s 25 29 mph 1017.1mb 46f 47f
8:00 3.5ft 4s 22 27 mph 1017mb 46f 48f
7:00 3.5ft 5s 22 27 mph 1016.6mb 46f 49f
6:00 4ft 4s 22 27 mph 1016.4mb 47f 48f
5:00 4ft 4s 22 27 mph 1016.4mb 47f 48f
4:00 4ft 4s 25 29 mph 1016mb 47f 48f
3:00 4.5ft 4s 22 27 mph 1016.1mb 46f 47f
2:00 4.5ft 5s 25 27 mph 1016.3mb 47f 47f
1:00 4.5ft 5s 20 25 mph 1015.9mb 47f 47f
12:00 4.5ft 5s 22 29 mph 1015mb 47f 47f
11:00 4ft 5s 25 29 mph 1014.4mb 46f 47f
10:00 4.5ft 4s 25 31 mph 1013mb 46f 47f
9:00 3.5ft 5s 25 29 mph 1012.6mb 46f 47f
8:00 3.5ft 4s 20 25 mph 1012.1mb 46f 47f
7:00 3ft 4s 20 25 mph 1011.2mb 46f 46f
6:00 3.5ft 5s 18 20 mph 1010.7mb 46f 46f
5:00 3.5ft 5s 18 22 mph 1009.9mb 46f 46f
4:00 4ft 5s 20 27 mph 1009.2mb 46f 46f
3:00 3.5ft 5s 18 22 mph 1009mb 46f 46f
2:00 3.5ft 5s 22 27 mph 1008.5mb 46f 46f
1:00 3.5ft 5s 16 22 mph 1008.3mb 46f 46f
12:00 3.5ft 5s 18 22 mph 1007.7mb 46f 46f
Dom 03/26 11:00 3.5ft 5s 18 22 mph 1007.3mb 46f 46f
10:00 3.5ft 5s 20 25 mph 1006.4mb 46f 46f
9:00 3.5ft 4s 22 27 mph 1005.7mb 46f 46f
8:00 3.5ft 5s 20 25 mph 1005.4mb 46f 46f
7:00 4.5ft 6s 20 25 mph 1005.1mb 46f 46f
6:00 5ft 6s 18 22 mph 1005mb 46f 46f
5:00 5ft 6s 20 22 mph 1005.1mb 46f 46f
4:00 6ft 6s 22 27 mph 1005mb 46f 45f
3:00 5ft 6s 22 29 mph 1005.3mb 46f 46f
2:00 5ft 6s 25 29 mph 1005.6mb 46f 44f
1:00 4.5ft 5s 27 29 mph 1005.9mb 46f 44f
12:00 4.5ft 5s 25 31 mph 1006.2mb 46f 44f
11:00 4ft 5s 22 29 mph 1006.7mb 46f 44f
10:00 4.5ft 5s 22 27 mph 1007.3mb 46f 43f
9:00 4ft 5s 22 27 mph 1007.4mb 46f 44f
8:00 4ft 5s 22 27 mph 1007.8mb 46f 45f
7:00 3.5ft 4s 20 25 mph 1008.3mb 46f 46f
6:00 3.5ft 4s 18 20 mph 1009mb 46f 45f
5:00 2.5ft 4s 22 29 mph 1009.8mb 46f 45f
4:00 2.5ft 3s 18 22 mph 1011.3mb 46f 45f
3:00 2ft 3s 18 22 mph 1012.5mb 46f 45f
2:00 2ft 4s 18 20 mph 1013.7mb 46f 45f
1:00 1.3ft 3s 13 18 mph 1014.2mb 46f 45f
12:00 1.3ft 3s 13 18 mph 1014.9mb 46f 45f
Sáb 03/25 11:00 1.3ft 4s 9
mph
1015.3mb 46f 45f
10:00 1.6ft 4s 13 16 mph 1015.5mb 46f 45f
9:00 2ft 4s 13 16 mph 1015.7mb 46f 46f
8:00 2ft 3s 20 22 mph 1015.9mb 46f 46f
7:00 1.6ft 4s 18 22 mph 1016mb 46f 47f
6:00 2ft 3s 13 18 mph 1016.3mb 46f 47f
5:00 2.5ft 4s 18 22 mph 1016.6mb 46f 47f
4:00 2.5ft 4s 18 20 mph 1016.6mb 46f 46f
3:00 1.6ft 3s 16 20 mph 1017mb 47f 47f
2:00 1.6ft 3s 16 18 mph 1017.2mb 47f 47f
1:00 1ft 2s 13 18 mph 1017.2mb 47f 47f
12:00 0.7ft 2s 4 9 mph 1017.4mb 47f 47f
11:00 0.7ft 2s 2 4 mph 1017.5mb 47f 46f
10:00 0.7ft 4s 4 7 mph 1016.8mb 46f 44f
9:00 0.7ft 2s 9
mph
1016.3mb 46f 45f
8:00 0.7ft 3s 7 9 mph 1015.6mb 46f 45f
7:00 0.7ft 3s 2 4 mph 1015.4mb 46f 44f
6:00 1ft 3s 4
mph
1014.4mb 46f 44f
5:00 1.3ft 4s 4
mph
1013.6mb 46f 45f
4:00 1.6ft 4s 7 9 mph 1013mb 46f 46f
3:00 2ft 4s 9 11 mph 1012.4mb 46f 46f
2:00 2.5ft 4s 11 16 mph 1011.9mb 46f 47f
1:00 2.5ft 4s 11 16 mph 1011.3mb 46f 46f
12:00 2.5ft 4s 18 22 mph 1010.3mb 46f 47f
Sex 03/24 11:00 3ft 4s 20 27 mph 1009.3mb 46f 47f
10:00 3.5ft 4s 20 22 mph 1008.8mb 46f 47f
9:00 3.5ft 4s 20 27 mph 1008mb 46f 47f
8:00 3.5ft 4s 20 27 mph 1007.3mb 46f 48f
7:00 3.5ft 4s 22 27 mph 1006.7mb 46f 48f
6:00 3.5ft 4s 18 22 mph 1006.2mb 46f 48f
5:00 4ft 4s 25 29 mph 1005.5mb 46f 48f
4:00 4ft 5s 22 27 mph 1005.3mb 46f 47f
3:00 4.5ft 5s 22 29 mph 1005.3mb 46f 47f
2:00 4.5ft 5s 25 31 mph 1005.1mb 46f 47f
1:00 5ft 5s 25 31 mph 1005mb 46f 47f
12:00 4.5ft 5s 25 31 mph 1005mb 46f 47f
11:00 4.5ft 5s 25 31 mph 1004.5mb 46f 47f